Time;durP1;ratioP1;P1;durP2;ratioP2;P2;SDS_P1;SDS_P2;PMS_P1;PMS_P2;Temp;Humidity;BMP_temperature;BMP_pressure;BME280_temperature;BME280_humidity;BME280_pressure;Samples;Min_cycle;Max_cycle;Signal;HPM_P1;HPM_P2
2022/10/07 00:01:21;;;;;;;23.20;4.18;;;;;;;;;;5055198;28;20051;-71
2022/10/07 00:03:47;;;;;;;17.35;2.75;;;;;;;;;;5061241;28;20037;-71
2022/10/07 00:06:15;;;;;;;16.05;2.47;;;;;;;;;;5071341;28;20040;-71
2022/10/07 00:08:42;;;;;;;17.10;2.97;;;;;;;;;;5066989;28;20057;-71
2022/10/07 00:11:09;;;;;;;17.42;3.13;;;;;;;;;;5058390;28;20045;-71
2022/10/07 00:13:37;;;;;;;16.17;2.97;;;;;;;;;;5072921;28;20024;-71
2022/10/07 00:16:05;;;;;;;12.90;2.63;;;;;;;;;;5070551;28;20021;-71
2022/10/07 00:18:31;;;;;;;13.88;2.72;;;;;;;;;;5068389;28;20028;-70
2022/10/07 00:21:01;;;;;;;21.33;3.33;;;;;;;;;;5065809;28;20049;-70
2022/10/07 00:23:27;;;;;;;10.05;2.20;;;;;;;;;;5056592;28;20036;-71
2022/10/07 00:25:53;;;;;;;15.32;3.70;;;;;;;;;;5072273;28;20044;-71
2022/10/07 00:28:19;;;;;;;11.88;3.28;;;;;;;;;;5066780;28;20384;-71
2022/10/07 00:30:45;;;;;;;14.48;2.20;;;;;;;;;;5058328;28;20115;-71
2022/10/07 00:33:11;;;;;;;14.98;3.38;;;;;;;;;;5070617;28;20076;-72
2022/10/07 00:35:37;;;;;;;15.00;2.28;;;;;;;;;;5052650;28;20366;-72
2022/10/07 00:38:03;;;;;;;14.65;3.13;;;;;;;;;;5064298;28;20033;-71
2022/10/07 00:40:29;;;;;;;14.70;2.83;;;;;;;;;;5053162;28;20584;-71
2022/10/07 00:42:55;;;;;;;18.95;3.22;;;;;;;;;;5068333;28;20036;-71
2022/10/07 00:45:21;;;;;;;14.73;2.38;;;;;;;;;;5068290;28;20036;-71
2022/10/07 00:47:48;;;;;;;18.85;3.10;;;;;;;;;;5072123;28;20029;-71
2022/10/07 00:50:21;;;;;;;9.82;2.80;;;;;;;;;;5072334;28;20036;-71
2022/10/07 00:52:51;;;;;;;19.85;3.97;;;;;;;;;;5069136;28;20029;-71
2022/10/07 00:55:18;;;;;;;19.67;2.95;;;;;;;;;;5072419;28;20036;-70
2022/10/07 00:57:45;;;;;;;12.18;2.30;;;;;;;;;;5068135;28;20033;-71
2022/10/07 01:00:11;;;;;;;20.60;2.95;;;;;;;;;;5068097;28;20383;-71
2022/10/07 01:02:38;;;;;;;11.65;2.47;;;;;;;;;;5051629;28;20048;-71
2022/10/07 01:05:06;;;;;;;19.23;3.25;;;;;;;;;;5069114;28;20380;-71
2022/10/07 01:07:32;;;;;;;11.98;3.28;;;;;;;;;;5070254;28;20375;-70
2022/10/07 01:09:59;;;;;;;15.73;3.63;;;;;;;;;;5068606;28;20512;-71
2022/10/07 01:12:29;;;;;;;8.43;2.47;;;;;;;;;;5071409;28;20075;-71
2022/10/07 01:15:07;;;;;;;17.30;2.72;;;;;;;;;;5056665;28;20032;-71
2022/10/07 01:17:42;;;;;;;10.55;2.60;;;;;;;;;;5068633;28;20043;-71
2022/10/07 01:20:23;;;;;;;18.80;4.03;;;;;;;;;;5068540;28;20103;-71
2022/10/07 01:22:49;;;;;;;14.43;3.67;;;;;;;;;;5070550;28;20035;-71
2022/10/07 01:25:15;;;;;;;21.10;2.75;;;;;;;;;;5069741;28;20082;-72
2022/10/07 01:27:45;;;;;;;11.07;2.75;;;;;;;;;;5070133;28;20372;-72
2022/10/07 01:30:11;;;;;;;17.73;3.13;;;;;;;;;;5071504;28;20020;-71
2022/10/07 01:32:40;;;;;;;15.48;2.75;;;;;;;;;;5065035;28;20249;-72
2022/10/07 01:35:09;;;;;;;20.20;4.30;;;;;;;;;;5065052;28;20086;-71
2022/10/07 01:37:39;;;;;;;17.98;2.70;;;;;;;;;;5059644;28;20048;-71
2022/10/07 01:40:08;;;;;;;24.17;4.30;;;;;;;;;;5057646;28;20116;-71
2022/10/07 01:42:34;;;;;;;12.75;2.85;;;;;;;;;;5051498;28;20114;-71
2022/10/07 01:45:01;;;;;;;10.52;3.05;;;;;;;;;;5059986;28;20035;-71
2022/10/07 01:47:28;;;;;;;14.70;3.15;;;;;;;;;;5066646;28;20109;-71
2022/10/07 01:49:54;;;;;;;14.27;2.72;;;;;;;;;;5062922;28;20028;-72
2022/10/07 01:52:31;;;;;;;20.58;4.03;;;;;;;;;;5067464;28;20051;-72
2022/10/07 01:55:16;;;;;;;18.15;3.25;;;;;;;;;;5066637;28;20469;-72
2022/10/07 01:57:42;;;;;;;15.15;2.95;;;;;;;;;;5071490;28;20035;-71
2022/10/07 02:00:12;;;;;;;13.00;3.03;;;;;;;;;;5060942;28;20107;-72
2022/10/07 02:02:41;;;;;;;20.20;4.63;;;;;;;;;;5067155;28;20037;-71
2022/10/07 02:05:14;;;;;;;20.23;3.47;;;;;;;;;;5068559;28;20028;-71
2022/10/07 02:07:50;;;;;;;16.17;3.88;;;;;;;;;;5069063;28;20033;-71
2022/10/07 02:10:16;;;;;;;14.38;3.28;;;;;;;;;;5064711;28;20501;-71
2022/10/07 02:13:04;;;;;;;17.92;3.72;;;;;;;;;;5068030;28;20143;-71
2022/10/07 02:15:42;;;;;;;18.55;4.00;;;;;;;;;;5067923;28;20518;-72
2022/10/07 02:18:10;;;;;;;15.00;3.35;;;;;;;;;;5051235;28;20025;-71
2022/10/07 02:20:38;;;;;;;19.27;3.80;;;;;;;;;;5061644;28;20128;-71
2022/10/07 02:23:06;;;;;;;15.52;3.58;;;;;;;;;;5070861;28;20043;-72
2022/10/07 02:25:35;;;;;;;17.33;2.97;;;;;;;;;;5060068;28;20041;-72
2022/10/07 02:28:04;;;;;;;12.73;3.00;;;;;;;;;;5065893;28;20036;-72
2022/10/07 02:30:31;;;;;;;16.38;3.13;;;;;;;;;;5061736;28;20108;-71
2022/10/07 02:33:02;;;;;;;13.02;3.83;;;;;;;;;;5068625;28;20063;-71
2022/10/07 02:35:28;;;;;;;12.50;2.78;;;;;;;;;;5057762;28;20492;-72
2022/10/07 02:37:56;;;;;;;19.75;3.78;;;;;;;;;;5062999;28;20571;-71
2022/10/07 02:40:25;;;;;;;12.82;3.67;;;;;;;;;;5057890;28;20025;-72
2022/10/07 02:43:15;;;;;;;16.20;3.40;;;;;;;;;;5066150;28;20142;-71
2022/10/07 02:45:46;;;;;;;17.52;3.15;;;;;;;;;;5055091;28;20048;-73
2022/10/07 02:48:17;;;;;;;18.83;4.38;;;;;;;;;;5069226;28;20107;-73
2022/10/07 02:50:47;;;;;;;15.60;3.17;;;;;;;;;;5056612;28;20025;-72
2022/10/07 02:53:15;;;;;;;12.68;3.63;;;;;;;;;;5061748;28;20119;-73
2022/10/07 02:55:42;;;;;;;12.48;3.70;;;;;;;;;;5062791;28;20036;-71
2022/10/07 02:58:09;;;;;;;19.23;3.30;;;;;;;;;;5067996;28;20361;-72
2022/10/07 03:00:37;;;;;;;23.73;4.25;;;;;;;;;;5060807;28;20481;-71
2022/10/07 03:03:04;;;;;;;16.48;3.58;;;;;;;;;;5054954;28;20033;-72
2022/10/07 03:05:32;;;;;;;20.90;4.75;;;;;;;;;;5063344;28;20481;-71
2022/10/07 03:08:06;;;;;;;13.68;3.67;;;;;;;;;;5069416;28;20102;-73
2022/10/07 03:10:32;;;;;;;20.90;3.20;;;;;;;;;;5072755;28;20507;-71
2022/10/07 03:12:59;;;;;;;18.67;3.22;;;;;;;;;;5073147;28;20028;-72
2022/10/07 03:15:26;;;;;;;26.17;4.07;;;;;;;;;;5060085;28;20059;-72
2022/10/07 03:17:52;;;;;;;18.60;4.20;;;;;;;;;;5070639;28;20477;-72
2022/10/07 03:20:18;;;;;;;19.55;4.18;;;;;;;;;;5064582;28;20532;-72
2022/10/07 03:22:44;;;;;;;24.33;5.30;;;;;;;;;;5074179;28;20032;-72
2022/10/07 03:25:11;;;;;;;21.92;4.32;;;;;;;;;;5069728;28;20031;-72
2022/10/07 03:27:38;;;;;;;23.30;3.65;;;;;;;;;;5073197;28;20026;-72
2022/10/07 03:30:04;;;;;;;19.73;5.20;;;;;;;;;;5067949;28;20060;-72
2022/10/07 03:32:30;;;;;;;15.77;3.65;;;;;;;;;;5071802;28;20400;-72
2022/10/07 03:34:56;;;;;;;21.25;4.75;;;;;;;;;;5056245;28;20029;-71
2022/10/07 03:37:23;;;;;;;30.05;5.32;;;;;;;;;;5060944;28;20059;-71
2022/10/07 03:39:49;;;;;;;19.02;4.47;;;;;;;;;;5074351;28;20086;-71
2022/10/07 03:42:15;;;;;;;19.38;4.47;;;;;;;;;;5070419;28;20036;-71
2022/10/07 03:44:41;;;;;;;16.00;3.45;;;;;;;;;;5057784;28;20060;-71
2022/10/07 03:47:07;;;;;;;19.92;4.18;;;;;;;;;;5072615;28;20503;-71
2022/10/07 03:49:36;;;;;;;20.08;4.18;;;;;;;;;;5061117;28;20469;-71
2022/10/07 03:52:02;;;;;;;15.52;3.50;;;;;;;;;;5068629;28;20040;-73
2022/10/07 03:54:29;;;;;;;16.55;4.80;;;;;;;;;;5071038;28;20043;-71
2022/10/07 03:56:55;;;;;;;22.40;3.88;;;;;;;;;;5071236;28;20101;-71
2022/10/07 03:59:21;;;;;;;15.65;4.15;;;;;;;;;;5070150;28;20028;-70
2022/10/07 04:01:47;;;;;;;20.08;4.60;;;;;;;;;;5065939;28;20028;-71
2022/10/07 04:04:13;;;;;;;24.60;5.10;;;;;;;;;;5072955;28;20092;-71
2022/10/07 04:06:41;;;;;;;20.30;4.40;;;;;;;;;;5062320;28;20051;-71
2022/10/07 04:09:08;;;;;;;19.02;4.32;;;;;;;;;;5067531;28;20045;-70
2022/10/07 04:11:34;;;;;;;27.15;5.82;;;;;;;;;;5061264;28;20048;-71
2022/10/07 04:14:00;;;;;;;28.65;6.03;;;;;;;;;;5070088;28;20369;-73
2022/10/07 04:16:27;;;;;;;20.48;5.00;;;;;;;;;;5063932;28;20107;-71
2022/10/07 04:18:56;;;;;;;18.08;3.97;;;;;;;;;;5061380;28;20496;-71
2022/10/07 04:21:23;;;;;;;22.33;4.53;;;;;;;;;;5065737;28;20064;-71
2022/10/07 04:23:49;;;;;;;26.13;4.35;;;;;;;;;;5060996;28;20025;-71
2022/10/07 04:26:15;;;;;;;22.17;4.60;;;;;;;;;;5066618;28;20078;-71
2022/10/07 04:28:41;;;;;;;27.65;4.57;;;;;;;;;;5064357;28;20107;-75
2022/10/07 04:31:08;;;;;;;23.00;5.10;;;;;;;;;;5063038;28;20484;-72
2022/10/07 04:33:38;;;;;;;21.73;5.25;;;;;;;;;;5063370;28;20476;-72
2022/10/07 04:36:04;;;;;;;17.52;4.25;;;;;;;;;;5064502;28;20090;-74
2022/10/07 04:38:31;;;;;;;22.73;4.50;;;;;;;;;;5067549;28;20037;-72
2022/10/07 04:40:57;;;;;;;23.63;4.60;;;;;;;;;;5071791;28;20024;-72
2022/10/07 04:43:25;;;;;;;27.80;4.30;;;;;;;;;;5071189;28;20029;-72
2022/10/07 04:46:05;;;;;;;14.57;3.95;;;;;;;;;;5062973;28;20076;-72
2022/10/07 04:48:31;;;;;;;16.58;4.53;;;;;;;;;;5063853;28;20449;-71
2022/10/07 04:51:08;;;;;;;16.92;5.95;;;;;;;;;;5072584;28;20039;-71
2022/10/07 04:53:35;;;;;;;26.83;4.45;;;;;;;;;;5070903;28;20036;-70
2022/10/07 04:56:01;;;;;;;21.73;4.82;;;;;;;;;;5060475;28;20032;-72
2022/10/07 04:58:28;;;;;;;25.83;5.50;;;;;;;;;;5063361;28;20032;-71
2022/10/07 05:00:54;;;;;;;23.00;4.50;;;;;;;;;;5060268;28;20021;-73
2022/10/07 05:03:22;;;;;;;28.65;5.43;;;;;;;;;;5070278;28;20037;-71
2022/10/07 05:05:49;;;;;;;31.77;5.78;;;;;;;;;;5068198;28;20032;-73
2022/10/07 05:08:17;;;;;;;19.38;4.15;;;;;;;;;;5070224;28;20059;-71
2022/10/07 05:10:43;;;;;;;19.95;5.03;;;;;;;;;;5063807;28;20040;-72
2022/10/07 05:13:11;;;;;;;22.10;5.20;;;;;;;;;;5071515;28;20032;-71
2022/10/07 05:15:37;;;;;;;22.38;4.50;;;;;;;;;;5067597;28;20045;-71
2022/10/07 05:18:04;;;;;;;20.02;4.30;;;;;;;;;;5052428;28;20033;-73
2022/10/07 05:20:31;;;;;;;24.45;5.30;;;;;;;;;;5067225;28;20489;-72
2022/10/07 05:22:57;;;;;;;22.08;4.60;;;;;;;;;;5058185;28;20028;-73
2022/10/07 05:25:23;;;;;;;29.65;5.03;;;;;;;;;;5063996;28;20086;-71
2022/10/07 05:27:52;;;;;;;23.65;6.18;;;;;;;;;;5065435;28;20381;-71
2022/10/07 05:30:18;;;;;;;26.77;4.85;;;;;;;;;;5059607;28;20340;-71
2022/10/07 05:32:44;;;;;;;16.35;4.18;;;;;;;;;;5040791;28;20085;-72
2022/10/07 05:35:10;;;;;;;28.92;4.72;;;;;;;;;;5059570;28;20488;-71
2022/10/07 05:37:36;;;;;;;24.77;5.38;;;;;;;;;;5057160;28;20473;-71
2022/10/07 05:40:03;;;;;;;27.08;4.50;;;;;;;;;;5057700;28;20029;-71
2022/10/07 05:42:29;;;;;;;25.90;4.85;;;;;;;;;;5058696;28;20056;-71
2022/10/07 05:44:55;;;;;;;24.20;7.22;;;;;;;;;;5058149;28;20048;-73
2022/10/07 05:47:21;;;;;;;28.40;9.70;;;;;;;;;;5059707;28;20494;-74
2022/10/07 05:49:47;;;;;;;58.97;23.52;;;;;;;;;;5066546;28;20436;-71
2022/10/07 05:52:13;;;;;;;22.38;5.65;;;;;;;;;;5068627;28;20025;-71
2022/10/07 05:54:39;;;;;;;27.83;6.53;;;;;;;;;;5065085;28;20115;-71
2022/10/07 05:57:05;;;;;;;18.25;4.85;;;;;;;;;;5067272;28;20041;-70
2022/10/07 05:59:31;;;;;;;28.60;5.78;;;;;;;;;;5068820;28;20033;-69
2022/10/07 06:01:59;;;;;;;26.58;5.60;;;;;;;;;;5069801;28;20048;-70
2022/10/07 06:04:26;;;;;;;23.45;5.50;;;;;;;;;;5069246;28;20032;-72
2022/10/07 06:06:52;;;;;;;29.00;5.95;;;;;;;;;;5068660;28;20392;-70
2022/10/07 06:15:04;;;;;;;23.65;5.78;;;;;;;;;;5055762;28;20035;-70
2022/10/07 06:17:30;;;;;;;27.70;6.60;;;;;;;;;;5068619;28;20067;-72
2022/10/07 06:19:57;;;;;;;23.10;5.72;;;;;;;;;;5069207;28;20024;-71
2022/10/07 06:22:23;;;;;;;27.05;5.93;;;;;;;;;;5058579;28;20035;-71
2022/10/07 06:24:50;;;;;;;23.35;6.05;;;;;;;;;;5067412;28;20054;-71
2022/10/07 06:27:17;;;;;;;21.45;5.25;;;;;;;;;;5060807;28;20025;-71
2022/10/07 06:29:43;;;;;;;45.92;6.88;;;;;;;;;;5064492;28;20040;-71
2022/10/07 06:32:09;;;;;;;24.08;5.75;;;;;;;;;;5069239;28;20499;-71
2022/10/07 06:34:35;;;;;;;24.55;4.93;;;;;;;;;;5066847;28;20038;-69
2022/10/07 06:37:01;;;;;;;23.55;4.63;;;;;;;;;;5068323;28;20167;-71
2022/10/07 06:39:27;;;;;;;23.42;6.72;;;;;;;;;;5068314;28;20279;-69
2022/10/07 06:41:56;;;;;;;24.33;5.70;;;;;;;;;;5065306;28;20033;-68
2022/10/07 06:44:22;;;;;;;26.70;5.97;;;;;;;;;;5068576;28;20035;-72
2022/10/07 06:46:48;;;;;;;16.40;5.07;;;;;;;;;;5065791;28;20480;-71
2022/10/07 06:49:14;;;;;;;19.33;4.88;;;;;;;;;;5056260;28;20040;-70
2022/10/07 06:51:41;;;;;;;20.70;5.15;;;;;;;;;;5061792;28;20060;-70
2022/10/07 06:54:07;;;;;;;23.38;5.20;;;;;;;;;;5062780;28;20059;-71
2022/10/07 06:56:33;;;;;;;21.50;6.30;;;;;;;;;;5058771;28;20033;-71
2022/10/07 06:59:02;;;;;;;24.42;6.55;;;;;;;;;;5067729;28;20040;-70
2022/10/07 07:01:28;;;;;;;20.85;5.63;;;;;;;;;;5065207;28;20021;-70
2022/10/07 07:03:54;;;;;;;27.05;5.38;;;;;;;;;;5065860;28;20029;-69
2022/10/07 07:06:22;;;;;;;22.95;6.50;;;;;;;;;;5059836;28;21218;-72
2022/10/07 07:08:49;;;;;;;24.55;7.18;;;;;;;;;;5060175;28;20033;-70
2022/10/07 07:14:17;;;;;;;27.52;6.20;;;;;;;;;;5009147;28;20029;-70
2022/10/07 07:16:44;;;;;;;23.52;6.75;;;;;;;;;;5060770;28;20535;-69
2022/10/07 07:19:10;;;;;;;32.05;5.32;;;;;;;;;;5064092;28;20032;-69
2022/10/07 07:21:37;;;;;;;33.47;6.60;;;;;;;;;;5059960;28;20036;-69
2022/10/07 07:24:03;;;;;;;26.90;5.13;;;;;;;;;;5064035;28;20104;-69
2022/10/07 07:26:30;;;;;;;26.85;5.63;;;;;;;;;;5064944;28;20044;-68
2022/10/07 07:29:01;;;;;;;19.55;4.47;;;;;;;;;;5065454;28;20024;-70
2022/10/07 07:31:28;;;;;;;15.52;4.05;;;;;;;;;;5065302;28;20097;-70
2022/10/07 07:33:54;;;;;;;25.08;5.28;;;;;;;;;;5068178;28;20028;-70
2022/10/07 07:36:22;;;;;;;17.73;4.82;;;;;;;;;;5068334;28;20114;-68
2022/10/07 07:38:52;;;;;;;20.73;5.30;;;;;;;;;;5069851;28;20028;-69
2022/10/07 07:41:20;;;;;;;20.33;4.38;;;;;;;;;;5063370;28;20016;-69
2022/10/07 07:43:54;;;;;;;22.98;5.28;;;;;;;;;;5068886;28;20039;-68
2022/10/07 07:46:22;;;;;;;23.45;4.47;;;;;;;;;;5064307;28;20048;-68
2022/10/07 07:48:50;;;;;;;15.32;3.85;;;;;;;;;;5060884;28;20480;-70
2022/10/07 07:51:17;;;;;;;22.48;5.72;;;;;;;;;;5064240;28;20127;-69
2022/10/07 07:53:44;;;;;;;23.73;4.70;;;;;;;;;;5070085;28;20397;-69
2022/10/07 07:56:10;;;;;;;21.88;5.70;;;;;;;;;;5069252;28;20140;-68
2022/10/07 07:58:37;;;;;;;16.73;4.18;;;;;;;;;;5071334;28;20338;-69
2022/10/07 08:01:07;;;;;;;27.67;5.65;;;;;;;;;;5067636;28;20028;-69
2022/10/07 08:03:37;;;;;;;19.00;4.10;;;;;;;;;;5071503;28;20514;-69
2022/10/07 08:06:04;;;;;;;25.90;6.75;;;;;;;;;;5069814;28;20480;-68
2022/10/07 08:08:30;;;;;;;23.55;8.32;;;;;;;;;;5071304;28;20037;-69
2022/10/07 08:10:57;;;;;;;18.67;4.60;;;;;;;;;;5069387;28;20435;-68
2022/10/07 08:13:23;;;;;;;19.30;5.85;;;;;;;;;;5064835;28;20452;-69
2022/10/07 08:15:55;;;;;;;18.92;5.03;;;;;;;;;;5070943;28;20041;-69
2022/10/07 08:18:21;;;;;;;25.20;5.13;;;;;;;;;;5070275;28;20035;-70
2022/10/07 08:20:55;;;;;;;21.73;3.75;;;;;;;;;;5062757;28;20082;-69
2022/10/07 08:23:22;;;;;;;15.65;4.55;;;;;;;;;;5069193;28;20025;-70
2022/10/07 08:25:52;;;;;;;19.55;4.80;;;;;;;;;;5069463;28;20037;-69
2022/10/07 08:28:18;;;;;;;24.80;5.05;;;;;;;;;;5062639;28;20020;-69
2022/10/07 08:30:45;;;;;;;20.80;3.95;;;;;;;;;;5068314;28;20040;-70
2022/10/07 08:33:11;;;;;;;15.50;3.53;;;;;;;;;;5064516;28;20045;-69
2022/10/07 08:35:37;;;;;;;13.00;3.58;;;;;;;;;;5068266;28;20048;-69
2022/10/07 08:38:03;;;;;;;19.02;3.65;;;;;;;;;;5067474;28;20028;-68
2022/10/07 08:40:29;;;;;;;25.88;4.32;;;;;;;;;;5071567;28;20097;-67
2022/10/07 08:42:55;;;;;;;16.50;4.38;;;;;;;;;;5070167;28;20033;-67
2022/10/07 08:45:30;;;;;;;18.85;3.42;;;;;;;;;;5065418;28;20477;-68
2022/10/07 08:47:58;;;;;;;15.60;3.97;;;;;;;;;;5068392;28;20037;-68
2022/10/07 08:50:44;;;;;;;17.02;3.45;;;;;;;;;;5070982;28;20021;-68
2022/10/07 08:53:15;;;;;;;16.45;3.70;;;;;;;;;;5065039;28;20044;-68
2022/10/07 08:55:45;;;;;;;19.45;3.78;;;;;;;;;;5071211;28;20540;-68
2022/10/07 08:58:32;;;;;;;18.20;4.07;;;;;;;;;;5068251;28;20032;-68
2022/10/07 09:01:06;;;;;;;15.38;3.10;;;;;;;;;;5067925;28;20033;-70
2022/10/07 09:03:50;;;;;;;26.77;7.35;;;;;;;;;;5061530;28;20024;-69
2022/10/07 09:06:20;;;;;;;16.98;3.95;;;;;;;;;;5066753;28;20554;-69
2022/10/07 09:08:50;;;;;;;22.77;4.93;;;;;;;;;;5061844;28;20044;-69
2022/10/07 09:11:19;;;;;;;21.13;4.18;;;;;;;;;;5070384;28;20041;-69
2022/10/07 09:13:52;;;;;;;23.35;3.53;;;;;;;;;;5068436;28;20031;-70
2022/10/07 09:16:22;;;;;;;19.17;3.42;;;;;;;;;;5073099;28;20053;-67
2022/10/07 09:18:52;;;;;;;18.30;4.07;;;;;;;;;;5061021;28;20032;-70
2022/10/07 09:21:24;;;;;;;18.55;3.60;;;;;;;;;;5071184;28;20031;-69
2022/10/07 09:24:01;;;;;;;19.42;4.40;;;;;;;;;;5066061;28;20480;-71
2022/10/07 09:26:27;;;;;;;20.63;3.95;;;;;;;;;;5070526;28;20058;-69
2022/10/07 09:28:53;;;;;;;17.40;4.07;;;;;;;;;;5066125;28;20032;-69
2022/10/07 09:31:21;;;;;;;12.90;3.42;;;;;;;;;;5062908;28;20029;-69
2022/10/07 09:33:52;;;;;;;24.05;4.15;;;;;;;;;;5053784;28;20456;-67
2022/10/07 09:36:19;;;;;;;17.03;4.30;;;;;;;;;;5067784;28;20040;-70
2022/10/07 09:38:49;;;;;;;20.92;3.50;;;;;;;;;;5067784;28;20024;-70
2022/10/07 09:41:18;;;;;;;20.60;3.75;;;;;;;;;;5065990;28;20032;-69
2022/10/07 09:43:53;;;;;;;21.65;3.50;;;;;;;;;;5066190;28;20025;-69
2022/10/07 09:46:41;;;;;;;20.85;3.97;;;;;;;;;;5065947;28;20427;-70
2022/10/07 09:49:26;;;;;;;15.55;3.30;;;;;;;;;;5075103;28;20039;-69
2022/10/07 09:52:06;;;;;;;23.48;4.35;;;;;;;;;;5053968;28;20463;-69
2022/10/07 09:54:33;;;;;;;22.60;4.35;;;;;;;;;;5068600;28;20040;-70
2022/10/07 09:57:00;;;;;;;18.60;3.67;;;;;;;;;;5068114;28;20036;-70
2022/10/07 09:59:28;;;;;;;17.67;3.50;;;;;;;;;;5067982;28;20106;-69
2022/10/07 10:01:57;;;;;;;16.02;3.35;;;;;;;;;;5055926;28;20040;-69
2022/10/07 10:04:34;;;;;;;16.20;3.40;;;;;;;;;;5065211;28;20032;-69
2022/10/07 10:07:16;;;;;;;22.13;4.38;;;;;;;;;;5067755;28;20158;-69
2022/10/07 10:09:48;;;;;;;13.65;3.22;;;;;;;;;;5070862;28;20033;-70
2022/10/07 10:12:15;;;;;;;16.45;2.78;;;;;;;;;;5063088;28;20033;-71
2022/10/07 10:14:47;;;;;;;19.17;3.63;;;;;;;;;;5068644;28;20085;-69
2022/10/07 10:17:39;;;;;;;13.32;2.83;;;;;;;;;;5059149;28;20048;-70
2022/10/07 10:20:17;;;;;;;11.93;2.90;;;;;;;;;;5057796;28;20068;-71
2022/10/07 10:22:43;;;;;;;14.98;3.08;;;;;;;;;;5062754;28;20025;-69
2022/10/07 10:28:13;;;;;;;14.88;3.15;;;;;;;;;;5069765;28;20512;-71
2022/10/07 10:30:44;;;;;;;16.73;3.17;;;;;;;;;;5069578;28;20488;-69
2022/10/07 10:33:24;;;;;;;16.38;3.60;;;;;;;;;;5069337;28;20167;-69
2022/10/07 10:35:56;;;;;;;19.95;3.30;;;;;;;;;;5064475;28;20481;-69
2022/10/07 10:38:32;;;;;;;14.50;2.80;;;;;;;;;;5069861;28;20378;-69
2022/10/07 10:41:09;;;;;;;15.23;3.13;;;;;;;;;;5057670;28;20123;-69
2022/10/07 10:43:35;;;;;;;22.10;4.47;;;;;;;;;;5065585;28;20266;-69
2022/10/07 10:46:04;;;;;;;16.90;3.72;;;;;;;;;;5061693;28;20077;-70
2022/10/07 10:48:43;;;;;;;19.25;3.28;;;;;;;;;;5059777;28;20036;-69
2022/10/07 10:51:33;;;;;;;15.32;2.92;;;;;;;;;;5062906;28;20025;-69
2022/10/07 10:54:11;;;;;;;20.98;4.35;;;;;;;;;;5069754;28;20033;-69
2022/10/07 10:59:57;;;;;;;16.73;3.35;;;;;;;;;;5111612;27;20416;-70
2022/10/07 11:02:28;;;;;;;11.50;2.85;;;;;;;;;;5102190;28;20027;-70
2022/10/07 11:05:00;;;;;;;13.95;3.20;;;;;;;;;;5103981;28;20032;-70
2022/10/07 11:07:29;;;;;;;13.02;3.20;;;;;;;;;;5108316;28;20107;-70
2022/10/07 11:09:57;;;;;;;11.68;2.88;;;;;;;;;;5102247;28;20024;-70
2022/10/07 11:12:26;;;;;;;15.70;3.03;;;;;;;;;;5094564;28;20417;-70
2022/10/07 11:14:55;;;;;;;11.00;2.55;;;;;;;;;;5107366;28;20110;-70
2022/10/07 11:17:23;;;;;;;14.20;2.13;;;;;;;;;;5103627;28;20074;-71
2022/10/07 11:20:03;;;;;;;11.95;2.72;;;;;;;;;;5097768;28;20478;-70
2022/10/07 11:22:34;;;;;;;16.75;3.47;;;;;;;;;;5092218;28;20024;-71
2022/10/07 11:25:04;;;;;;;11.75;2.67;;;;;;;;;;5093411;28;20028;-71
2022/10/07 11:27:31;;;;;;;14.18;3.05;;;;;;;;;;5099729;28;21486;-71
2022/10/07 11:30:06;;;;;;;16.08;2.83;;;;;;;;;;5096483;28;21510;-71
2022/10/07 11:32:40;;;;;;;14.43;2.33;;;;;;;;;;5095068;28;20039;-71
2022/10/07 11:35:24;;;;;;;23.67;3.13;;;;;;;;;;5094334;28;20032;-73
2022/10/07 11:38:02;;;;;;;17.48;3.65;;;;;;;;;;5098069;28;20035;-71
2022/10/07 11:40:33;;;;;;;16.15;3.33;;;;;;;;;;5097682;28;20748;-71
2022/10/07 11:43:05;;;;;;;17.90;2.50;;;;;;;;;;5094809;28;20037;-72
2022/10/07 11:45:36;;;;;;;15.77;2.65;;;;;;;;;;5094617;28;20535;-70
2022/10/07 11:48:05;;;;;;;13.20;2.80;;;;;;;;;;5093972;28;20035;-72
2022/10/07 11:50:38;;;;;;;16.63;3.65;;;;;;;;;;5094417;28;20040;-72
2022/10/07 11:53:06;;;;;;;17.70;2.78;;;;;;;;;;5095862;28;20092;-72
2022/10/07 11:55:43;;;;;;;18.00;2.83;;;;;;;;;;5094078;28;20036;-72
2022/10/07 11:58:23;;;;;;;15.63;3.33;;;;;;;;;;5095912;28;20059;-72
2022/10/07 12:00:49;;;;;;;14.73;3.08;;;;;;;;;;5096450;28;20071;-71
2022/10/07 12:03:18;;;;;;;11.73;2.25;;;;;;;;;;5093023;28;20388;-70
2022/10/07 12:05:51;;;;;;;18.42;5.05;;;;;;;;;;5096634;28;20131;-70
2022/10/07 12:08:23;;;;;;;19.38;2.85;;;;;;;;;;5096844;28;20089;-70
2022/10/07 12:10:53;;;;;;;15.82;3.40;;;;;;;;;;5085069;28;20043;-70
2022/10/07 12:13:19;;;;;;;11.18;2.60;;;;;;;;;;5079399;28;20092;-72
2022/10/07 12:15:46;;;;;;;18.15;2.78;;;;;;;;;;5080440;28;20500;-73
2022/10/07 12:18:16;;;;;;;13.90;3.25;;;;;;;;;;5081651;28;20170;-72
2022/10/07 12:20:45;;;;;;;12.43;1.95;;;;;;;;;;5082284;28;20031;-71
2022/10/07 12:25:47;;;;;;;12.43;2.08;;;;;;;;;;5086003;28;20028;-71
2022/10/07 12:28:33;;;;;;;14.73;2.58;;;;;;;;;;5078735;28;20365;-71
2022/10/07 12:31:04;;;;;;;18.20;2.97;;;;;;;;;;5069581;28;20040;-70
2022/10/07 12:33:45;;;;;;;18.48;2.58;;;;;;;;;;5083951;28;20028;-70
2022/10/07 12:36:30;;;;;;;14.05;2.67;;;;;;;;;;5080417;28;20036;-70
2022/10/07 12:39:16;;;;;;;15.75;2.15;;;;;;;;;;5083495;28;20036;-69
2022/10/07 12:41:45;;;;;;;12.90;1.80;;;;;;;;;;5085758;28;20031;-72
2022/10/07 12:44:23;;;;;;;12.70;2.40;;;;;;;;;;5081247;28;20031;-72
2022/10/07 12:46:50;;;;;;;13.70;2.75;;;;;;;;;;5083475;28;20441;-71
2022/10/07 12:49:19;;;;;;;10.23;2.40;;;;;;;;;;5082803;28;20122;-71
2022/10/07 12:51:46;;;;;;;12.45;2.22;;;;;;;;;;5080698;28;20443;-73
2022/10/07 12:54:12;;;;;;;17.23;3.05;;;;;;;;;;5085723;28;20032;-72
2022/10/07 12:56:41;;;;;;;12.95;2.90;;;;;;;;;;5079668;28;20040;-73
2022/10/07 13:02:31;;;;;;;12.40;2.92;;;;;;;;;;5088219;28;20039;-70
2022/10/07 13:05:11;;;;;;;11.57;4.60;;;;;;;;;;5034136;28;20077;-68
2022/10/07 13:07:55;;;;;;;13.95;2.28;;;;;;;;;;5088696;28;20028;-71
2022/10/07 13:10:30;;;;;;;10.68;2.40;;;;;;;;;;5088472;28;20032;-71
2022/10/07 13:13:06;;;;;;;10.65;2.85;;;;;;;;;;5078867;28;20020;-71
2022/10/07 13:15:40;;;;;;;16.45;3.03;;;;;;;;;;5088322;28;20370;-74
2022/10/07 13:18:06;;;;;;;13.75;2.08;;;;;;;;;;5090415;28;20046;-71
2022/10/07 13:20:52;;;;;;;21.25;3.10;;;;;;;;;;5082393;28;20027;-71
2022/10/07 13:23:19;;;;;;;15.63;2.78;;;;;;;;;;5084932;28;20020;-69
2022/10/07 13:25:52;;;;;;;6.38;1.80;;;;;;;;;;5085481;28;20029;-69
2022/10/07 13:28:17;;;;;;;;;;;;;;;;;;5076053;28;20477;-70
2022/10/07 13:30:45;;;;;;;19.15;4.70;;;;;;;;;;5077522;28;19946;-68
2022/10/07 13:33:14;;;;;;;18.20;5.55;;;;;;;;;;5086818;28;20024;-69
2022/10/07 13:35:40;;;;;;;31.83;15.95;;;;;;;;;;5088902;28;20054;-69
2022/10/07 13:38:19;;;;;;;13.75;3.22;;;;;;;;;;5086821;28;20039;-69
2022/10/07 13:40:51;;;;;;;12.20;2.30;;;;;;;;;;5078992;28;20112;-72
2022/10/07 13:43:18;;;;;;;16.80;3.03;;;;;;;;;;5087504;28;20028;-69
2022/10/07 13:45:44;;;;;;;15.88;2.67;;;;;;;;;;5089588;28;20078;-69
2022/10/07 13:48:15;;;;;;;15.75;3.65;;;;;;;;;;5084383;28;20121;-69
2022/10/07 13:50:42;;;;;;;12.75;1.98;;;;;;;;;;5091825;28;20046;-68
2022/10/07 13:53:19;;;;;;;13.27;2.13;;;;;;;;;;5086467;28;20028;-69
2022/10/07 13:55:46;;;;;;;15.70;2.35;;;;;;;;;;5091041;28;20055;-68
2022/10/07 13:58:12;;;;;;;14.73;2.40;;;;;;;;;;5086245;28;20052;-69
2022/10/07 14:00:42;;;;;;;11.63;2.58;;;;;;;;;;5090950;28;20032;-68
2022/10/07 14:03:18;;;;;;;10.77;2.28;;;;;;;;;;5080569;28;20028;-70
2022/10/07 14:05:51;;;;;;;19.83;2.58;;;;;;;;;;5105939;28;20476;-71
2022/10/07 14:08:21;;;;;;;14.73;2.88;;;;;;;;;;5098492;28;20387;-73
2022/10/07 14:10:53;;;;;;;11.88;2.13;;;;;;;;;;5103389;28;20024;-68
2022/10/07 14:13:19;;;;;;;19.00;2.70;;;;;;;;;;5093796;28;20468;-70
2022/10/07 14:15:46;;;;;;;11.05;2.03;;;;;;;;;;5080130;28;20388;-68
2022/10/07 14:18:14;;;;;;;11.65;2.20;;;;;;;;;;5085363;28;20040;-70
2022/10/07 14:20:43;;;;;;;14.82;2.53;;;;;;;;;;5079380;28;20032;-73
2022/10/07 14:23:25;;;;;;;13.45;4.38;;;;;;;;;;5081707;28;20039;-70
2022/10/07 14:25:55;;;;;;;9.07;2.33;;;;;;;;;;5078406;28;20557;-69
2022/10/07 14:28:26;;;;;;;9.48;1.85;;;;;;;;;;5091165;28;20408;-71
2022/10/07 14:37:04;;;;;;;12.43;2.20;;;;;;;;;;5071612;28;20507;-71
2022/10/07 14:39:32;;;;;;;12.48;1.88;;;;;;;;;;5072180;28;20040;-69
2022/10/07 14:41:58;;;;;;;7.72;2.13;;;;;;;;;;5084173;28;20028;-69
2022/10/07 14:44:25;;;;;;;7.60;1.52;;;;;;;;;;5088964;28;20505;-69
2022/10/07 14:47:04;;;;;;;12.63;2.15;;;;;;;;;;5089532;28;20117;-70
2022/10/07 14:49:30;;;;;;;9.88;1.90;;;;;;;;;;5089323;28;20028;-71
2022/10/07 14:51:56;;;;;;;10.75;1.98;;;;;;;;;;5088576;28;20033;-70
2022/10/07 14:54:23;;;;;;;15.80;2.00;;;;;;;;;;5088247;28;20058;-70
2022/10/07 14:56:50;;;;;;;9.82;2.47;;;;;;;;;;5078646;28;20028;-73
2022/10/07 14:59:16;;;;;;;15.18;2.67;;;;;;;;;;5089185;28;20044;-72
2022/10/07 15:01:42;;;;;;;13.90;3.35;;;;;;;;;;5090624;28;20064;-69
2022/10/07 15:04:10;;;;;;;13.77;2.30;;;;;;;;;;5081388;28;20086;-70
2022/10/07 15:06:36;;;;;;;15.32;2.13;;;;;;;;;;5086993;28;20032;-70
2022/10/07 15:09:03;;;;;;;14.25;3.40;;;;;;;;;;5084206;28;20035;-70
2022/10/07 15:11:29;;;;;;;12.63;2.58;;;;;;;;;;5081389;28;20541;-70